^^
Station Historical Data
Daily Summary for January 29, 2018 Units:  Metric    English   Both
« Previous Day
Next Day »
Daily Weekly Monthly Yearly Custom
  High: Low: Average:
Temperature: -17.8 °C -18.3 °C -17.9 °C
Dew Point: -17.8 °C -18.8 °C -18.4 °C
Humidity: Humidity% 94% 94%
Wind Speed: 0km/h 0km/h 1.6km/h
Wind Gust: 0km/h - -
Wind- - ENE
Pressure: 0 hPa 33809.2 hPa -
Precipitation: 0 mm    
Historical Graphs
 
 
Tabular Data for January 29, 2018
Time Temperature Dew Point Pressure Wind Wind Speed Wind Gust Humidity Rainfall Rate (Hourly) solar Conditions
-17.8 °C -17.8 °C 0 hPa Calm     Humidity% 0 mm SoftwareType W/m2 Conditions
00:02 -17.6 °C -18 °C 33958.2 hPa ENE 6.4 km/h 9 km/h 94% 0 mm WeatherDisplay:10.37 W/m2 RA
00:07 -17.6 °C -18 °C 33958.2 hPa Calm   5.1 km/h 94% 0 mm WeatherDisplay:10.37 W/m2 RA
00:12 -17.6 °C -18 °C 33958.2 hPa ENE 1.8 km/h 9 km/h 94% 0 mm WeatherDisplay:10.37 W/m2 FEW
00:17 -17.6 °C -18 °C 33958.2 hPa Calm   9 km/h 94% 0 mm WeatherDisplay:10.37 W/m2 FEW
00:22 -17.6 °C -18 °C 33958.2 hPa NE 4.2 km/h 11.9 km/h 94% 0 mm WeatherDisplay:10.37 W/m2 FEW
00:27 -17.6 °C -18 °C 33958.2 hPa NE 2.1 km/h 9 km/h 94% 0 mm WeatherDisplay:10.37 W/m2 FEW
00:32 -17.6 °C -18 °C 33958.2 hPa ENE 2.1 km/h 9 km/h 94% 0 mm WeatherDisplay:10.37 W/m2 FEW
00:37 -17.6 °C -18 °C 33958.2 hPa ENE 2.3 km/h 9 km/h 94% 0 mm WeatherDisplay:10.37 W/m2 FEW
00:42 -17.6 °C -18 °C 33958.2 hPa Calm   9 km/h 94% 0 mm WeatherDisplay:10.37 W/m2 FEW
00:47 -17.6 °C -18 °C 33958.2 hPa ENE 0.5 km/h 6 km/h 94% 0 mm WeatherDisplay:10.37 W/m2 FEW
00:52 -17.6 °C -18.1 °C 33958.2 hPa ENE 3.7 km/h 11.9 km/h 94% 0 mm WeatherDisplay:10.37 W/m2 FEW
00:57 -17.6 °C -18.1 °C 33958.2 hPa ENE 8.5 km/h 15 km/h 94% 0 mm WeatherDisplay:10.37 W/m2 FEW
01:02 -17.6 °C -18.1 °C 33958.2 hPa Calm   9 km/h 94% 0 mm WeatherDisplay:10.37 W/m2 FEW
01:07 -17.6 °C -18.1 °C 33958.2 hPa ENE 1 km/h 9 km/h 94% 0 mm WeatherDisplay:10.37 W/m2 FEW
01:12 -17.6 °C -18.1 °C 33958.2 hPa Calm   2.6 km/h 94% 0 mm WeatherDisplay:10.37 W/m2 FEW
01:17 -17.6 °C -18.1 °C 33958.2 hPa ENE 5 km/h 10.3 km/h 94% 0 mm WeatherDisplay:10.37 W/m2 FEW
01:22 -17.6 °C -18.1 °C 33958.2 hPa East 2.1 km/h 6 km/h 94% 0 mm WeatherDisplay:10.37 W/m2 FEW
01:27 -17.6 °C -18.1 °C 33958.2 hPa East 0.8 km/h 9 km/h 94% 0 mm WeatherDisplay:10.37 W/m2 FEW
01:32 -17.6 °C -18.1 °C 33958.2 hPa ENE 2.1 km/h 7.7 km/h 94% 0 mm WeatherDisplay:10.37 W/m2 FEW
01:37 -17.6 °C -18.1 °C 33958.2 hPa ENE 2.6 km/h 9 km/h 94% 0 mm WeatherDisplay:10.37 W/m2 FEW
01:42 -17.6 °C -18.1 °C 33958.2 hPa ENE 3.9 km/h 10.3 km/h 94% 0 mm WeatherDisplay:10.37 W/m2 FEW
01:47 -17.7 °C -18.1 °C 33958.2 hPa NE 3.7 km/h 9 km/h 94% 0 mm WeatherDisplay:10.37 W/m2 FEW
01:52 -17.7 °C -18.1 °C 33958.2 hPa ENE 3.4 km/h 11.9 km/h 94% 0 mm WeatherDisplay:10.37 W/m2 FEW
01:58 -17.7 °C -18.1 °C 33958.2 hPa NNE 3.7 km/h 11.9 km/h 94% 0 mm WeatherDisplay:10.37 W/m2 FEW
02:03 -17.7 °C -18.1 °C 33958.2 hPa NE 0.3 km/h 6 km/h 94% 0 mm WeatherDisplay:10.37 W/m2 FEW
02:08 -17.7 °C -18.2 °C 33958.2 hPa ENE 2.6 km/h 9 km/h 94% 0 mm WeatherDisplay:10.37 W/m2 FEW
02:13 -17.7 °C -18.2 °C 33958.2 hPa ENE 1 km/h 6 km/h 94% 0 mm WeatherDisplay:10.37 W/m2 FEW
02:18 -17.7 °C -18.2 °C 33958.2 hPa NE 4.7 km/h 9 km/h 94% 0 mm WeatherDisplay:10.37 W/m2 FEW
02:23 -17.7 °C -18.2 °C 33958.2 hPa ENE 6 km/h 11.9 km/h 94% 0 mm WeatherDisplay:10.37 W/m2 FEW
02:28 -17.7 °C -18.2 °C 33958.2 hPa NE 5 km/h 9 km/h 94% 0 mm WeatherDisplay:10.37 W/m2 FEW
02:33 -17.7 °C -18.2 °C 33958.2 hPa ENE 6.3 km/h 12.9 km/h 94% 0 mm WeatherDisplay:10.37 W/m2 FEW
02:38 -17.7 °C -18.2 °C 33971.7 hPa Calm   9 km/h 94% 0 mm WeatherDisplay:10.37 W/m2 FEW
02:43 -17.7 °C -18.2 °C 33971.7 hPa NE 7.2 km/h 9 km/h 94% 0 mm WeatherDisplay:10.37 W/m2 FEW
02:48 -17.7 °C -18.2 °C 33971.7 hPa NE 1 km/h 9 km/h 94% 0 mm WeatherDisplay:10.37 W/m2 FEW
02:53 -17.7 °C -18.2 °C 33971.7 hPa ENE 2.6 km/h 11.9 km/h 94% 0 mm WeatherDisplay:10.37 W/m2 FEW
02:58 -17.7 °C -18.2 °C 33971.7 hPa NE 1.6 km/h 9 km/h 94% 0 mm WeatherDisplay:10.37 W/m2 FEW
03:03 -17.7 °C -18.2 °C 33971.7 hPa ENE 1.3 km/h 10.3 km/h 94% 0 mm WeatherDisplay:10.37 W/m2 FEW
03:08 -17.7 °C -18.2 °C 33971.7 hPa ENE 6.3 km/h 11.9 km/h 94% 0 mm WeatherDisplay:10.37 W/m2 FEW
03:13 -17.7 °C -18.2 °C 33971.7 hPa ENE 2.6 km/h 9 km/h 94% 0 mm WeatherDisplay:10.37 W/m2 FEW
03:18 -17.8 °C -18.2 °C 33971.7 hPa NE 3.4 km/h 12.9 km/h 94% 0 mm WeatherDisplay:10.37 W/m2 FEW
03:23 -17.8 °C -18.2 °C 33971.7 hPa Calm     94% 0 mm WeatherDisplay:10.37 W/m2 FEW
03:28 -17.8 °C -18.2 °C 33971.7 hPa East 2.3 km/h 10.3 km/h 94% 0 mm WeatherDisplay:10.37 W/m2 FEW
03:33 -17.8 °C -18.3 °C 33971.7 hPa ENE 8 km/h 11.9 km/h 94% 0 mm WeatherDisplay:10.37 W/m2 FEW
03:38 -17.8 °C -18.3 °C 33971.7 hPa NE 6.9 km/h 11.9 km/h 94% 0 mm WeatherDisplay:10.37 W/m2 FEW
03:43 -17.8 °C -18.3 °C 33971.7 hPa Calm   6 km/h 94% 0 mm WeatherDisplay:10.37 W/m2 FEW
03:48 -17.8 °C -18.3 °C 33971.7 hPa NE 3.7 km/h 9 km/h 94% 0 mm WeatherDisplay:10.37 W/m2 FEW
03:53 -17.8 °C -18.3 °C 33971.7 hPa ENE 1.8 km/h 9 km/h 94% 0 mm WeatherDisplay:10.37 W/m2 FEW
03:58 -17.8 °C -18.3 °C 33971.7 hPa NE 5.1 km/h 9 km/h 94% 0 mm WeatherDisplay:10.37 W/m2 FEW
04:03 -17.9 °C -18.3 °C 33971.7 hPa NE 3.1 km/h 9 km/h 94% 0 mm WeatherDisplay:10.37 W/m2 FEW
04:08 -17.9 °C -18.3 °C 33971.7 hPa ENE 9 km/h 17.9 km/h 94% 0 mm WeatherDisplay:10.37 W/m2 FEW
04:13 -17.9 °C -18.3 °C 33971.7 hPa Calm   9 km/h 94% 0 mm WeatherDisplay:10.37 W/m2 FEW
04:18 -17.9 °C -18.3 °C 33971.7 hPa ENE 3.4 km/h 7.7 km/h 94% 0 mm WeatherDisplay:10.37 W/m2 FEW
04:23 -17.9 °C -18.3 °C 33971.7 hPa NE 2.1 km/h 9 km/h 94% 0 mm WeatherDisplay:10.37 W/m2 FEW
04:28 -17.9 °C -18.4 °C 33971.7 hPa Calm     94% 0 mm WeatherDisplay:10.37 W/m2 FEW
04:33 -17.9 °C -18.4 °C 33971.7 hPa NE 0.3 km/h 9 km/h 94% 0 mm WeatherDisplay:10.37 W/m2 FEW
04:38 -17.9 °C -18.4 °C 33971.7 hPa Calm   11.9 km/h 94% 0 mm WeatherDisplay:10.37 W/m2 FEW
04:43 -17.9 °C -18.4 °C 33971.7 hPa ENE 8.2 km/h 20.9 km/h 94% 0 mm WeatherDisplay:10.37 W/m2 FEW
04:48 -17.9 °C -18.4 °C 33971.7 hPa ENE 2.6 km/h 9 km/h 94% 0 mm WeatherDisplay:10.37 W/m2 FEW
04:53 -17.9 °C -18.4 °C 33971.7 hPa Calm     94% 0 mm WeatherDisplay:10.37 W/m2 FEW
04:58 -17.9 °C -18.4 °C 33971.7 hPa Calm   6 km/h 94% 0 mm WeatherDisplay:10.37 W/m2 FEW
05:03 -17.9 °C -18.4 °C 33971.7 hPa Calm     94% 0 mm WeatherDisplay:10.37 W/m2 FEW
05:08 -17.9 °C -18.4 °C 33971.7 hPa Calm     94% 0 mm WeatherDisplay:10.37 W/m2 FEW
05:13 -17.9 °C -18.4 °C 33971.7 hPa ENE 1 km/h 6 km/h 94% 0 mm WeatherDisplay:10.37 W/m2 FEW
05:18 -17.9 °C -18.4 °C 33971.7 hPa ENE 4.2 km/h 9 km/h 94% 0 mm WeatherDisplay:10.37 W/m2 FEW
05:23 -17.9 °C -18.4 °C 33971.7 hPa Calm     94% 0 mm WeatherDisplay:10.37 W/m2 FEW
05:28 -17.9 °C -18.4 °C 33971.7 hPa Calm   3.1 km/h 94% 0 mm WeatherDisplay:10.37 W/m2 FEW
05:33 -17.9 °C -18.4 °C 33971.7 hPa Calm     94% 0 mm WeatherDisplay:10.37 W/m2 FEW
05:38 -17.9 °C -18.4 °C 33971.7 hPa NE 0.3 km/h 3.1 km/h 94% 0 mm WeatherDisplay:10.37 W/m2 FEW
05:43 -17.9 °C -18.4 °C 33971.7 hPa Calm   3.1 km/h 94% 0 mm WeatherDisplay:10.37 W/m2 FEW
05:48 -17.9 °C -18.4 °C 33971.7 hPa ENE 2.6 km/h 9 km/h 94% 0 mm WeatherDisplay:10.37 W/m2 FEW
05:53 -17.9 °C -18.4 °C 33971.7 hPa NE 0.3 km/h 6 km/h 94% 0 mm WeatherDisplay:10.37 W/m2 FEW
05:58 -17.9 °C -18.4 °C 33971.7 hPa ENE 5.5 km/h 10.3 km/h 94% 0 mm WeatherDisplay:10.37 W/m2 FEW
06:03 -17.9 °C -18.4 °C 33981.9 hPa NE 0.5 km/h 5.1 km/h 94% 0 mm WeatherDisplay:10.37 W/m2 FEW
06:08 -17.9 °C -18.4 °C 33981.9 hPa Calm   6 km/h 94% 0 mm WeatherDisplay:10.37 W/m2 FEW
06:13 -17.9 °C -18.4 °C 33981.9 hPa ENE 6.9 km/h 9 km/h 94% 0 mm WeatherDisplay:10.37 W/m2 FEW
06:18 -17.9 °C -18.4 °C 33971.7 hPa Calm     94% 0 mm WeatherDisplay:10.37 W/m2 FEW
06:23 -17.9 °C -18.4 °C 33981.9 hPa NE 0.5 km/h 6 km/h 94% 0 mm WeatherDisplay:10.37 W/m2 FEW
06:28 -17.9 °C -18.4 °C 33981.9 hPa Calm     94% 0 mm WeatherDisplay:10.37 W/m2 FEW
06:33 -17.9 °C -18.4 °C 33981.9 hPa NE 4.7 km/h 9 km/h 94% 0 mm WeatherDisplay:10.37 W/m2 FEW
06:38 -17.9 °C -18.4 °C 33981.9 hPa Calm   2.6 km/h 94% 0 mm WeatherDisplay:10.37 W/m2 FEW
06:43 -17.9 °C -18.4 °C 33981.9 hPa Calm     94% 0 mm WeatherDisplay:10.37 W/m2 FEW
06:48 -17.9 °C -18.4 °C 33981.9 hPa Calm     94% 0 mm WeatherDisplay:10.37 W/m2 FEW
06:53 -17.9 °C -18.4 °C 33981.9 hPa Calm     94% 0 mm WeatherDisplay:10.37 W/m2 FEW
06:58 -17.9 °C -18.4 °C 33981.9 hPa Calm     94% 0 mm WeatherDisplay:10.37 W/m2 FEW
07:03 -17.9 °C -18.4 °C 33992.1 hPa NE 0.3 km/h 3.1 km/h 94% 0 mm WeatherDisplay:10.37 W/m2 FEW
07:08 -17.9 °C -18.4 °C 33992.1 hPa Calm     94% 0 mm WeatherDisplay:10.37 W/m2 FEW
07:13 -17.9 °C -18.4 °C 33992.1 hPa NE 0.3 km/h 6 km/h 94% 0 mm WeatherDisplay:10.37 W/m2 FEW
07:18 -17.9 °C -18.4 °C 33992.1 hPa Calm     94% 0 mm WeatherDisplay:10.37 W/m2 FEW
07:23 -17.9 °C -18.4 °C 33992.1 hPa Calm     94% 0 mm WeatherDisplay:10.37 W/m2 FEW
07:28 -17.9 °C -18.4 °C 33992.1 hPa Calm     94% 0 mm WeatherDisplay:10.37 W/m2 FEW
07:33 -17.9 °C -18.4 °C 33992.1 hPa Calm     94% 0 mm WeatherDisplay:10.37 W/m2 FEW
07:38 -17.9 °C -18.4 °C 33992.1 hPa Calm   2.6 km/h 94% 0 mm WeatherDisplay:10.37 W/m2 FEW
07:43 -17.9 °C -18.4 °C 33992.1 hPa NE 4.2 km/h 9 km/h 94% 0 mm WeatherDisplay:10.37 W/m2 FEW
07:48 -17.9 °C -18.4 °C 33992.1 hPa NE 3.9 km/h 9 km/h 94% 0 mm WeatherDisplay:10.37 W/m2 FEW
07:53 -17.9 °C -18.4 °C 33992.1 hPa NE 2.3 km/h 6 km/h 94% 0 mm WeatherDisplay:10.37 W/m2 FEW
07:58 -17.9 °C -18.4 °C 33992.1 hPa NE 5.6 km/h 9 km/h 94% 0 mm WeatherDisplay:10.37 W/m2 FEW
08:03 -17.9 °C -18.4 °C 33992.1 hPa Calm     94% 0 mm WeatherDisplay:10.37 W/m2 FEW
08:08 -17.9 °C -18.4 °C 33992.1 hPa Calm     94% 0 mm WeatherDisplay:10.37 W/m2 FEW
08:13 -17.9 °C -18.4 °C 33992.1 hPa Calm     94% 0 mm WeatherDisplay:10.37 W/m2 FEW
08:18 -17.9 °C -18.4 °C 33992.1 hPa Calm     94% 0 mm WeatherDisplay:10.37 W/m2 FEW
08:23 -17.9 °C -18.4 °C 33992.1 hPa NE 9.8 km/h 15 km/h 94% 0 mm WeatherDisplay:10.37 W/m2 FEW
08:28 -17.9 °C -18.4 °C 33992.1 hPa NE 6 km/h 9 km/h 94% 0 mm WeatherDisplay:10.37 W/m2 FEW
08:33 -17.9 °C -18.4 °C 34005.6 hPa NE 7.6 km/h 9 km/h 94% 0 mm WeatherDisplay:10.37 W/m2 FEW
08:38 -17.9 °C -18.4 °C 33992.1 hPa Calm     94% 0 mm WeatherDisplay:10.37 W/m2 FEW
08:43 -17.9 °C -18.4 °C 34005.6 hPa NE 1 km/h 5.1 km/h 94% 0 mm WeatherDisplay:10.37 W/m2 FEW
08:48 -17.9 °C -18.4 °C 34005.6 hPa NE 1 km/h 9 km/h 94% 0 mm WeatherDisplay:10.37 W/m2 FEW
08:53 -17.9 °C -18.4 °C 34005.6 hPa Calm     94% 0 mm WeatherDisplay:10.37 W/m2 FEW
08:58 -17.9 °C -18.4 °C 34005.6 hPa Calm     94% 0 mm WeatherDisplay:10.37 W/m2 FEW
09:03 -17.9 °C -18.4 °C 34005.6 hPa Calm     94% 0 mm WeatherDisplay:10.37 W/m2 FEW
09:08 -17.9 °C -18.4 °C 34005.6 hPa Calm     94% 0 mm WeatherDisplay:10.37 W/m2 FEW
09:13 -17.9 °C -18.4 °C 34005.6 hPa Calm     94% 0 mm WeatherDisplay:10.37 W/m2 FEW
09:18 -17.9 °C -18.4 °C 34005.6 hPa Calm     94% 0 mm WeatherDisplay:10.37 W/m2 FEW
09:23 -17.9 °C -18.4 °C 34005.6 hPa Calm     94% 0 mm WeatherDisplay:10.37 W/m2 FEW
09:28 -17.9 °C -18.4 °C 34005.6 hPa Calm     94% 0 mm WeatherDisplay:10.37 W/m2 FEW
09:33 -17.9 °C -18.4 °C 34005.6 hPa Calm     94% 0 mm WeatherDisplay:10.37 W/m2 FEW
09:38 -17.9 °C -18.4 °C 34005.6 hPa Calm   3.1 km/h 94% 0 mm WeatherDisplay:10.37 W/m2 FEW
09:43 -17.9 °C -18.4 °C 34015.8 hPa Calm     94% 0 mm WeatherDisplay:10.37 W/m2 FEW
09:48 -17.9 °C -18.4 °C 34005.6 hPa Calm     94% 0 mm WeatherDisplay:10.37 W/m2 FEW
09:53 -17.9 °C -18.4 °C 34005.6 hPa Calm     94% 0 mm WeatherDisplay:10.37 W/m2 FEW
09:58 -17.9 °C -18.4 °C 34005.6 hPa Calm     94% 0 mm WeatherDisplay:10.37 W/m2 FEW
10:03 -17.9 °C -18.4 °C 34005.6 hPa Calm     94% 0 mm WeatherDisplay:10.37 W/m2 FEW
10:08 -17.9 °C -18.4 °C 34005.6 hPa Calm     94% 0 mm WeatherDisplay:10.37 W/m2 FEW
10:13 -17.9 °C -18.4 °C 34005.6 hPa Calm     94% 0 mm WeatherDisplay:10.37 W/m2 FEW
10:18 -17.9 °C -18.4 °C 34005.6 hPa Calm     94% 0 mm WeatherDisplay:10.37 W/m2 FEW
10:23 -17.9 °C -18.4 °C 34005.6 hPa NE 1 km/h 5.1 km/h 94% 0 mm WeatherDisplay:10.37 W/m2 FEW
10:28 -17.9 °C -18.4 °C 34005.6 hPa Calm     94% 0 mm WeatherDisplay:10.37 W/m2 FEW
10:33 -17.9 °C -18.4 °C 34005.6 hPa Calm   3.1 km/h 94% 0 mm WeatherDisplay:10.37 W/m2 FEW
10:38 -17.9 °C -18.3 °C 34005.6 hPa Calm     94% 0 mm WeatherDisplay:10.37 W/m2 FEW
10:43 -17.9 °C -18.3 °C 34005.6 hPa Calm     94% 0 mm WeatherDisplay:10.37 W/m2 FEW
10:48 -17.9 °C -18.3 °C 34005.6 hPa Calm     94% 0 mm WeatherDisplay:10.37 W/m2 FEW
10:53 -17.9 °C -18.3 °C 34005.6 hPa NE 1.8 km/h 2.6 km/h 94% 0 mm WeatherDisplay:10.37 W/m2 FEW
10:58 -17.9 °C -18.3 °C 34005.6 hPa Calm     94% 0 mm WeatherDisplay:10.37 W/m2 FEW
11:03 -17.9 °C -18.3 °C 34005.6 hPa Calm     94% 0 mm WeatherDisplay:10.37 W/m2 FEW
11:09 -17.9 °C -18.3 °C 33992.1 hPa Calm     94% 0 mm WeatherDisplay:10.37 W/m2 FEW
11:13 -17.9 °C -18.3 °C 33992.1 hPa Calm     94% 0 mm WeatherDisplay:10.37 W/m2 FEW
11:19 -17.9 °C -18.3 °C 33992.1 hPa NE 0.3 km/h   94% 0 mm WeatherDisplay:10.37 W/m2 FEW
11:24 -17.9 °C -18.3 °C 33992.1 hPa Calm     94% 0 mm WeatherDisplay:10.37 W/m2 FEW
11:29 -17.9 °C -18.3 °C 33981.9 hPa NE 3.7 km/h 9 km/h 94% 0 mm WeatherDisplay:10.37 W/m2 FEW
11:34 -17.9 °C -18.3 °C 33981.9 hPa NE 2.3 km/h 7.7 km/h 94% 0 mm WeatherDisplay:10.37 W/m2 FEW
11:39 -17.9 °C -18.3 °C 33981.9 hPa NE 1.6 km/h 7.7 km/h 94% 0 mm WeatherDisplay:10.37 W/m2 FEW
11:44 -17.9 °C -18.3 °C 33981.9 hPa NE 1 km/h   94% 0 mm WeatherDisplay:10.37 W/m2 FEW
11:49 -17.9 °C -18.3 °C 33981.9 hPa NE 3.9 km/h 9 km/h 94% 0 mm WeatherDisplay:10.37 W/m2 FEW
11:54 -17.9 °C -18.3 °C 33981.9 hPa NE 3.4 km/h 9 km/h 94% 0 mm WeatherDisplay:10.37 W/m2 FEW
11:59 -17.9 °C -18.3 °C 33981.9 hPa NE 1.8 km/h 9 km/h 94% 0 mm WeatherDisplay:10.37 W/m2 FEW
12:04 -17.9 °C -18.3 °C 33981.9 hPa ENE 1 km/h 9 km/h 94% 0 mm WeatherDisplay:10.37 W/m2 FEW
12:09 -17.9 °C -18.3 °C 33981.9 hPa Calm     94% 0 mm WeatherDisplay:10.37 W/m2 FEW
12:14 -17.8 °C -18.3 °C 33981.9 hPa ENE 5.5 km/h 9 km/h 94% 0 mm WeatherDisplay:10.37 W/m2 FEW
12:19 -17.8 °C -18.3 °C 33981.9 hPa NE 4.7 km/h 9 km/h 94% 0 mm WeatherDisplay:10.37 W/m2 FEW
12:24 -17.8 °C -18.3 °C 33981.9 hPa ENE 10.6 km/h 15 km/h 94% 0 mm WeatherDisplay:10.37 W/m2 FEW
12:29 -17.8 °C -18.3 °C 33981.9 hPa ENE 0.5 km/h 6 km/h 94% 0 mm WeatherDisplay:10.37 W/m2 FEW
12:34 -17.8 °C -18.3 °C 33981.9 hPa ENE 1.6 km/h 5.1 km/h 94% 0 mm WeatherDisplay:10.37 W/m2 FEW
12:39 -17.8 °C -18.3 °C 33971.7 hPa Calm     94% 0 mm WeatherDisplay:10.37 W/m2 FEW
12:44 -17.8 °C -18.3 °C 33971.7 hPa ENE 2.3 km/h 9 km/h 94% 0 mm WeatherDisplay:10.37 W/m2 FEW
12:49 -17.8 °C -18.3 °C 33971.7 hPa ENE 2.6 km/h 6 km/h 94% 0 mm WeatherDisplay:10.37 W/m2 FEW
12:54 -17.8 °C -18.3 °C 33971.7 hPa ENE 2.9 km/h 6 km/h 94% 0 mm WeatherDisplay:10.37 W/m2 FEW
12:59 -17.8 °C -18.2 °C 33971.7 hPa Calm     94% 0 mm WeatherDisplay:10.37 W/m2 FEW
13:04 -17.8 °C -18.2 °C 33971.7 hPa ENE 0.3 km/h 9 km/h 94% 0 mm WeatherDisplay:10.37 W/m2 FEW
13:09 -17.7 °C -18.2 °C 33971.7 hPa ENE 1.6 km/h 5.1 km/h 94% 0 mm WeatherDisplay:10.37 W/m2 FEW
13:14 -17.7 °C -18.2 °C 33971.7 hPa ENE 1.6 km/h 6 km/h 94% 0 mm WeatherDisplay:10.37 W/m2 FEW
13:19 -17.7 °C -18.2 °C 33971.7 hPa ENE 1.6 km/h 6 km/h 94% 0 mm WeatherDisplay:10.37 W/m2 FEW
13:24 -17.7 °C -18.2 °C 33971.7 hPa Calm     94% 0 mm WeatherDisplay:10.37 W/m2 FEW
13:29 -17.7 °C -18.2 °C 33958.2 hPa Calm     94% 0 mm WeatherDisplay:10.37 W/m2 FEW
13:34 -17.7 °C -18.2 °C 33958.2 hPa Calm     94% 0 mm WeatherDisplay:10.37 W/m2 FEW
13:39 -17.7 °C -18.2 °C 33958.2 hPa Calm     94% 0 mm WeatherDisplay:10.37 W/m2 FEW
13:44 -17.7 °C -18.2 °C 33958.2 hPa Calm     94% 0 mm WeatherDisplay:10.37 W/m2 FEW
13:49 -17.7 °C -18.2 °C 33958.2 hPa ENE 0.3 km/h 6 km/h 94% 0 mm WeatherDisplay:10.37 W/m2 FEW
13:54 -17.7 °C -18.2 °C 33958.2 hPa Calm     94% 0 mm WeatherDisplay:10.37 W/m2 FEW
13:59 -17.7 °C -18.2 °C 33958.2 hPa Calm     94% 0 mm WeatherDisplay:10.37 W/m2 FEW
14:04 -17.7 °C -18.2 °C 33958.2 hPa Calm     94% 0 mm WeatherDisplay:10.37 W/m2 FEW
14:09 -17.7 °C -18.2 °C 33958.2 hPa Calm     94% 0 mm WeatherDisplay:10.37 W/m2 FEW
14:14 -17.7 °C -18.1 °C 33958.2 hPa Calm     94% 0 mm WeatherDisplay:10.37 W/m2 FEW
14:19 -17.7 °C -18.2 °C 33958.2 hPa Calm     94% 0 mm WeatherDisplay:10.37 W/m2 FEW
14:24 -17.7 °C -18.2 °C 33958.2 hPa Calm     94% 0 mm WeatherDisplay:10.37 W/m2 FEW
14:29 -17.7 °C -18.2 °C 33958.2 hPa Calm     94% 0 mm WeatherDisplay:10.37 W/m2 FEW
14:34 -17.7 °C -18.2 °C 33958.2 hPa Calm     94% 0 mm WeatherDisplay:10.37 W/m2 FEW
14:39 -17.7 °C -18.2 °C 33948 hPa Calm     94% 0 mm WeatherDisplay:10.37 W/m2 FEW
14:44 -17.7 °C -18.2 °C 33948 hPa Calm     94% 0 mm WeatherDisplay:10.37 W/m2 FEW
14:49 -17.7 °C -18.2 °C 33948 hPa Calm     94% 0 mm WeatherDisplay:10.37 W/m2 FEW
14:54 -17.7 °C -18.2 °C 33948 hPa Calm     94% 0 mm WeatherDisplay:10.37 W/m2 FEW
14:59 -17.7 °C -18.2 °C 33948 hPa Calm     94% 0 mm WeatherDisplay:10.37 W/m2 FEW
15:04 -17.7 °C -18.2 °C 33948 hPa Calm     94% 0 mm WeatherDisplay:10.37 W/m2 FEW
15:09 -17.7 °C -18.2 °C 33948 hPa Calm     94% 0 mm WeatherDisplay:10.37 W/m2 FEW
15:14 -17.7 °C -18.2 °C 33948 hPa Calm     94% 0 mm WeatherDisplay:10.37 W/m2 FEW
15:19 -17.7 °C -18.2 °C 33937.9 hPa Calm     94% 0 mm WeatherDisplay:10.37 W/m2 FEW
15:24 -17.7 °C -18.2 °C 33937.9 hPa Calm     94% 0 mm WeatherDisplay:10.37 W/m2 FEW
15:29 -17.7 °C -18.2 °C 33937.9 hPa Calm     94% 0 mm WeatherDisplay:10.37 W/m2 FEW
15:34 -17.7 °C -18.2 °C 33937.9 hPa Calm     94% 0 mm WeatherDisplay:10.37 W/m2 FEW
15:39 -17.8 °C -18.2 °C 33937.9 hPa Calm     94% 0 mm WeatherDisplay:10.37 W/m2 FEW
15:44 -17.8 °C -18.2 °C 33937.9 hPa Calm     94% 0 mm WeatherDisplay:10.37 W/m2 FEW
15:49 -17.8 °C -18.2 °C 33937.9 hPa Calm     94% 0 mm WeatherDisplay:10.37 W/m2 FEW
15:54 -17.8 °C -18.2 °C 33924.3 hPa ENE 2.1 km/h 10.3 km/h 94% 0 mm WeatherDisplay:10.37 W/m2 FEW
15:59 -17.8 °C -18.3 °C 33924.3 hPa Calm     94% 0 mm WeatherDisplay:10.37 W/m2 FEW
16:04 -17.8 °C -18.3 °C 33924.3 hPa Calm     94% 0 mm WeatherDisplay:10.37 W/m2 FEW
16:09 -17.8 °C -18.3 °C 33924.3 hPa Calm     94% 0 mm WeatherDisplay:10.37 W/m2 FEW
16:14 -17.8 °C -18.3 °C 33924.3 hPa Calm     94% 0 mm WeatherDisplay:10.37 W/m2 FEW
16:19 -17.8 °C -18.3 °C 33924.3 hPa Calm     94% 0 mm WeatherDisplay:10.37 W/m2 FEW
16:24 -17.8 °C -18.3 °C 33924.3 hPa Calm     94% 0 mm WeatherDisplay:10.37 W/m2 FEW
16:29 -17.8 °C -18.3 °C 33914.2 hPa Calm     94% 0 mm WeatherDisplay:10.37 W/m2 FEW
16:34 -17.8 °C -18.3 °C 33914.2 hPa Calm     94% 0 mm WeatherDisplay:10.37 W/m2 FEW
16:39 -17.8 °C -18.3 °C 33914.2 hPa ENE 1 km/h 6 km/h 94% 0 mm WeatherDisplay:10.37 W/m2 FEW
16:44 -17.9 °C -18.3 °C 33914.2 hPa ENE 0.8 km/h 6 km/h 94% 0 mm WeatherDisplay:10.37 W/m2 FEW
16:49 -17.9 °C -18.3 °C 33914.2 hPa Calm     94% 0 mm WeatherDisplay:10.37 W/m2 FEW
16:54 -17.9 °C -18.3 °C 33914.2 hPa Calm     94% 0 mm WeatherDisplay:10.37 W/m2 FEW
16:59 -17.9 °C -18.3 °C 33914.2 hPa Calm     94% 0 mm WeatherDisplay:10.37 W/m2 FEW
17:04 -17.9 °C -18.4 °C 33900.6 hPa ENE 2.3 km/h 6 km/h 94% 0 mm WeatherDisplay:10.37 W/m2 FEW
17:09 -17.9 °C -18.4 °C 33900.6 hPa Calm     94% 0 mm WeatherDisplay:10.37 W/m2 FEW
17:14 -17.9 °C -18.4 °C 33900.6 hPa Calm     94% 0 mm WeatherDisplay:10.37 W/m2 FEW
17:19 -17.9 °C -18.4 °C 33900.6 hPa Calm     94% 0 mm WeatherDisplay:10.37 W/m2 FEW
17:24 -17.9 °C -18.4 °C 33900.6 hPa Calm   6 km/h 94% 0 mm WeatherDisplay:10.37 W/m2 FEW
17:29 -17.9 °C -18.4 °C 33900.6 hPa Calm     94% 0 mm WeatherDisplay:10.37 W/m2 FEW
17:34 -17.9 °C -18.4 °C 33900.6 hPa Calm     94% 0 mm WeatherDisplay:10.37 W/m2 FEW
17:39 -17.9 °C -18.4 °C 33900.6 hPa Calm     94% 0 mm WeatherDisplay:10.37 W/m2 FEW
17:44 -17.9 °C -18.4 °C 33900.6 hPa Calm     94% 0 mm WeatherDisplay:10.37 W/m2 FEW
17:49 -17.9 °C -18.4 °C 33900.6 hPa ENE 3.4 km/h 6 km/h 94% 0 mm WeatherDisplay:10.37 W/m2 FEW
17:54 -17.9 °C -18.4 °C 33900.6 hPa ENE 0.8 km/h   94% 0 mm WeatherDisplay:10.37 W/m2 FEW
17:59 -18 °C -18.4 °C 33890.5 hPa Calm     94% 0 mm WeatherDisplay:10.37 W/m2 FEW
18:04 -18 °C -18.4 °C 33890.5 hPa Calm     94% 0 mm WeatherDisplay:10.37 W/m2 FEW
18:09 -18 °C -18.4 °C 33890.5 hPa Calm     94% 0 mm WeatherDisplay:10.37 W/m2 FEW
18:14 -18 °C -18.4 °C 33890.5 hPa ENE 0.8 km/h 10.3 km/h 94% 0 mm WeatherDisplay:10.37 W/m2 FEW
18:19 -18 °C -18.4 °C 33890.5 hPa ENE 2.1 km/h 9 km/h 94% 0 mm WeatherDisplay:10.37 W/m2 FEW
18:24 -18 °C -18.5 °C 33890.5 hPa ENE 1 km/h 9 km/h 94% 0 mm WeatherDisplay:10.37 W/m2 FEW
18:29 -18 °C -18.5 °C 33890.5 hPa ENE 2.6 km/h 9 km/h 94% 0 mm WeatherDisplay:10.37 W/m2 FEW
18:34 -18 °C -18.5 °C 33890.5 hPa Calm     94% 0 mm WeatherDisplay:10.37 W/m2 FEW
18:39 -18 °C -18.5 °C 33880.3 hPa NE 0.3 km/h 6 km/h 94% 0 mm WeatherDisplay:10.37 W/m2 FEW
18:44 -18 °C -18.5 °C 33890.5 hPa ENE 4.3 km/h 9 km/h 94% 0 mm WeatherDisplay:10.37 W/m2 FEW
18:49 -18.1 °C -18.5 °C 33880.3 hPa ENE 1.3 km/h 9 km/h 94% 0 mm WeatherDisplay:10.37 W/m2 FEW
18:54 -18 °C -18.5 °C 33880.3 hPa Calm     94% 0 mm WeatherDisplay:10.37 W/m2 FEW
18:59 -18.1 °C -18.5 °C 33880.3 hPa Calm     94% 0 mm WeatherDisplay:10.37 W/m2 FEW
19:04 -18.1 °C -18.5 °C 33880.3 hPa Calm     94% 0 mm WeatherDisplay:10.37 W/m2 FEW
19:09 -18.1 °C -18.5 °C 33880.3 hPa NE 6.3 km/h 11.9 km/h 94% 0 mm WeatherDisplay:10.37 W/m2 FEW
19:14 -18.1 °C -18.5 °C 33880.3 hPa Calm     94% 0 mm WeatherDisplay:10.37 W/m2 FEW
19:19 -18.1 °C -18.5 °C 33880.3 hPa ENE 6.8 km/h 11.9 km/h 94% 0 mm WeatherDisplay:10.37 W/m2 FEW
19:24 -18.1 °C -18.6 °C 33880.3 hPa Calm   5.1 km/h 94% 0 mm WeatherDisplay:10.37 W/m2 FEW
19:29 -18.1 °C -18.6 °C 33866.8 hPa ENE 0.5 km/h 2.6 km/h 94% 0 mm WeatherDisplay:10.37 W/m2 FEW
19:34 -18.1 °C -18.6 °C 33866.8 hPa Calm     94% 0 mm WeatherDisplay:10.37 W/m2 FEW
19:39 -18.1 °C -18.6 °C 33880.3 hPa Calm     94% 0 mm WeatherDisplay:10.37 W/m2 FEW
19:44 -18.1 °C -18.6 °C 33866.8 hPa Calm     94% 0 mm WeatherDisplay:10.37 W/m2 FEW
19:49 -18.1 °C -18.6 °C 33866.8 hPa Calm     94% 0 mm WeatherDisplay:10.37 W/m2 FEW
19:54 -18.1 °C -18.6 °C 33866.8 hPa ENE 0.3 km/h 3.1 km/h 94% 0 mm WeatherDisplay:10.37 W/m2 FEW
19:59 -18.1 °C -18.6 °C 33866.8 hPa Calm     94% 0 mm WeatherDisplay:10.37 W/m2 FEW
20:04 -18.1 °C -18.6 °C 33866.8 hPa East 0.8 km/h 6 km/h 94% 0 mm WeatherDisplay:10.37 W/m2 FEW
20:09 -18.1 °C -18.6 °C 33866.8 hPa ENE 3.9 km/h 11.9 km/h 94% 0 mm WeatherDisplay:10.37 W/m2 FEW
20:14 -18.1 °C -18.6 °C 33856.6 hPa Calm     94% 0 mm WeatherDisplay:10.37 W/m2 FEW
20:19 -18.1 °C -18.6 °C 33856.6 hPa Calm     94% 0 mm WeatherDisplay:10.37 W/m2 FEW
20:24 -18.1 °C -18.6 °C 33856.6 hPa Calm     94% 0 mm WeatherDisplay:10.37 W/m2 FEW
20:29 -18.1 °C -18.6 °C 33856.6 hPa Calm     94% 0 mm WeatherDisplay:10.37 W/m2 FEW
20:34 -18.1 °C -18.6 °C 33856.6 hPa Calm     94% 0 mm WeatherDisplay:10.37 W/m2 FEW
20:39 -18.1 °C -18.6 °C 33856.6 hPa Calm     94% 0 mm WeatherDisplay:10.37 W/m2 FEW
20:44 -18.1 °C -18.6 °C 33856.6 hPa NE 3.7 km/h 9 km/h 94% 0 mm WeatherDisplay:10.37 W/m2 FEW
20:49 -18.1 °C -18.6 °C 33856.6 hPa ENE 6 km/h 11.9 km/h 94% 0 mm WeatherDisplay:10.37 W/m2 FEW
20:54 -18.2 °C -18.6 °C 33856.6 hPa Calm     94% 0 mm WeatherDisplay:10.37 W/m2 FEW
20:59 -18.2 °C -18.6 °C 33856.6 hPa Calm     94% 0 mm WeatherDisplay:10.37 W/m2 FEW
21:04 -18.2 °C -18.6 °C 33856.6 hPa Calm     94% 0 mm WeatherDisplay:10.37 W/m2 FEW
21:09 -18.2 °C -18.6 °C 33843.1 hPa Calm     94% 0 mm WeatherDisplay:10.37 W/m2 FEW
21:14 -18.2 °C -18.7 °C 33843.1 hPa Calm     94% 0 mm WeatherDisplay:10.37 W/m2 FEW
21:19 -18.2 °C -18.7 °C 33843.1 hPa Calm     94% 0 mm WeatherDisplay:10.37 W/m2 FEW
21:24 -18.2 °C -18.7 °C 33843.1 hPa ENE 9.7 km/h 15 km/h 94% 0 mm WeatherDisplay:10.37 W/m2 FEW
21:29 -18.2 °C -18.7 °C 33843.1 hPa ENE 6.9 km/h 9 km/h 94% 0 mm WeatherDisplay:10.37 W/m2 FEW
21:34 -18.2 °C -18.7 °C 33843.1 hPa ENE 3.1 km/h 9 km/h 94% 0 mm WeatherDisplay:10.37 W/m2 FEW
21:39 -18.2 °C -18.7 °C 33843.1 hPa ENE 1.6 km/h 9 km/h 94% 0 mm WeatherDisplay:10.37 W/m2 FEW
21:44 -18.2 °C -18.7 °C 33843.1 hPa ENE 6.4 km/h 11.9 km/h 94% 0 mm WeatherDisplay:10.37 W/m2 FEW
21:49 -18.2 °C -18.7 °C 33843.1 hPa Calm     94% 0 mm WeatherDisplay:10.37 W/m2 FEW
21:54 -18.2 °C -18.7 °C 33832.9 hPa ENE 2.3 km/h 6 km/h 94% 0 mm WeatherDisplay:10.37 W/m2 FEW
21:59 -18.2 °C -18.7 °C 33832.9 hPa ENE 6.4 km/h 11.9 km/h 94% 0 mm WeatherDisplay:10.37 W/m2 FEW
22:04 -18.2 °C -18.7 °C 33832.9 hPa ENE 2.6 km/h 6 km/h 94% 0 mm WeatherDisplay:10.37 W/m2 FEW
22:09 -18.2 °C -18.7 °C 33832.9 hPa ENE 8.2 km/h 10.3 km/h 94% 0 mm WeatherDisplay:10.37 W/m2 FEW
22:14 -18.2 °C -18.7 °C 33832.9 hPa ENE 0.5 km/h 7.7 km/h 94% 0 mm WeatherDisplay:10.37 W/m2 FEW
22:19 -18.2 °C -18.7 °C 33832.9 hPa Calm   9 km/h 94% 0 mm WeatherDisplay:10.37 W/m2 FEW
22:24 -18.2 °C -18.7 °C 33832.9 hPa Calm   2.6 km/h 94% 0 mm WeatherDisplay:10.37 W/m2 FEW
22:29 -18.2 °C -18.7 °C 33832.9 hPa Calm   7.7 km/h 94% 0 mm WeatherDisplay:10.37 W/m2 FEW
22:35 -18.2 °C -18.7 °C 33832.9 hPa Calm     94% 0 mm WeatherDisplay:10.37 W/m2 FEW
22:40 -18.2 °C -18.7 °C 33832.9 hPa Calm     94% 0 mm WeatherDisplay:10.37 W/m2 FEW
22:45 -18.2 °C -18.7 °C 33832.9 hPa ENE 8 km/h 11.9 km/h 94% 0 mm WeatherDisplay:10.37 W/m2 FEW
22:50 -18.3 °C -18.7 °C 33822.8 hPa ENE 6.9 km/h 11.9 km/h 94% 0 mm WeatherDisplay:10.37 W/m2 FEW
22:55 -18.3 °C -18.7 °C 33822.8 hPa ENE 6 km/h 11.9 km/h 94% 0 mm WeatherDisplay:10.37 W/m2 FEW
23:00 -18.3 °C -18.7 °C 33822.8 hPa ENE 10.3 km/h 23.8 km/h 94% 0 mm WeatherDisplay:10.37 W/m2 FEW
23:05 -18.3 °C -18.8 °C 33822.8 hPa ENE 7.2 km/h 15 km/h 94% 0 mm WeatherDisplay:10.37 W/m2 FEW
23:10 -18.3 °C -18.8 °C 33822.8 hPa ENE 4.7 km/h 9 km/h 94% 0 mm WeatherDisplay:10.37 W/m2 FEW
23:15 -18.3 °C -18.8 °C 33822.8 hPa ENE 9.8 km/h 15 km/h 94% 0 mm WeatherDisplay:10.37 W/m2 FEW
23:20 -18.3 °C -18.8 °C 33822.8 hPa ENE 1.8 km/h 9 km/h 94% 0 mm WeatherDisplay:10.37 W/m2 FEW
23:25 -18.3 °C -18.8 °C 33822.8 hPa Calm     94% 0 mm WeatherDisplay:10.37 W/m2 FEW
23:30 -18.3 °C -18.8 °C 33822.8 hPa ENE 2.3 km/h 9 km/h 94% 0 mm WeatherDisplay:10.37 W/m2 FEW
23:35 -18.3 °C -18.8 °C 33809.2 hPa ENE 1 km/h 9 km/h 94% 0 mm WeatherDisplay:10.37 W/m2 FEW
23:40 -18.3 °C -18.8 °C 33822.8 hPa ENE 11.1 km/h 15 km/h 94% 0 mm WeatherDisplay:10.37 W/m2 FEW
23:45 -18.3 °C -18.8 °C 33809.2 hPa ENE 7.2 km/h 11.9 km/h 94% 0 mm WeatherDisplay:10.37 W/m2 FEW
23:50 -18.3 °C -18.8 °C 33809.2 hPa ENE 6.8 km/h 11.9 km/h 94% 0 mm WeatherDisplay:10.37 W/m2 FEW
23:55 -18.3 °C -18.8 °C 33809.2 hPa ENE 4.3 km/h 9 km/h 94% 0 mm WeatherDisplay:10.37 W/m2 FEW
Tuulensuunkaari, Veikkola, Suomi
Compliments of Weather Underground - 2.75 mb